DWD Radarbild

   
[Quelle: ADDS]
METAR
EDLP 122020Z 26003KT 200V360 5000 BR BKN005 OVC009 11/10 Q1018 =
EDLP 121700Z 1218/1318 29005KT 9999 BKN004 BKN020 BECMG 1219/1222 20005KT SCT010 BKN020 BECMG 1307/1310 23012KT TEMPO 1310/1315 24015G25KT
TAF
EDLP 121700Z 1218/1318 29005KT 9999 BKN004 BKN020 BECMG 1219/1222 20005KT SCT010 BKN020 BECMG 1307/1310 23012KT TEMPO 1310/1315 24015G25KT =
   
   

Meine WettercamWettercam aus Bielefeld Senne - Blickrichtung Süd-Ostjede Min. ein neues Bild

   
Moon phase
Phase:
Zunehmend

Mondphase:
25%

Alter:
5 Tage

Entfernung:
251,062 Km

Zeit:
22:01:43

Datum:
12-11-2018

   
<<  Nov 2018  >>
 Mo  Di  Mi  Do  Fr  Sa  So 
     1  2  3  4
  5  6  7  8  91011
12131415161718
19202122232425
2627282930